Time;durP1;ratioP1;P1;durP2;ratioP2;P2;SDS_P1;SDS_P2;PMS_P1;PMS_P2;Temp;Humidity;BMP_temperature;BMP_pressure;BME280_temperature;BME280_humidity;BME280_pressure;Samples;Min_cycle;Max_cycle;Signal;HPM_P1;HPM_P2
2021/09/17 00:02:17;;;;;;;33.05;28.98;;;17.80;93.20;;;;;;5017003;28;20022;-87
2021/09/17 00:04:43;;;;;;;34.35;30.15;;;17.80;93.10;;;;;;5001545;28;20471;-88
2021/09/17 00:07:09;;;;;;;35.65;29.63;;;17.80;93.10;;;;;;5017454;28;20042;-88
2021/09/17 00:09:35;;;;;;;34.42;29.70;;;17.80;93.10;;;;;;5015090;28;20124;-88
2021/09/17 00:12:01;;;;;;;36.13;30.45;;;17.70;93.20;;;;;;5017921;28;20112;-88
2021/09/17 00:14:28;;;;;;;34.53;30.02;;;17.80;93.30;;;;;;5021273;28;20049;-88
2021/09/17 00:16:54;;;;;;;35.25;29.40;;;17.80;93.20;;;;;;5035774;28;20079;-88
2021/09/17 00:19:20;;;;;;;35.28;29.73;;;17.70;93.30;;;;;;5030993;28;20105;-88
2021/09/17 00:21:46;;;;;;;35.05;29.25;;;17.70;93.20;;;;;;5017642;28;20025;-89
2021/09/17 00:24:12;;;;;;;35.47;29.73;;;17.70;93.30;;;;;;4996287;28;20033;-88
2021/09/17 00:26:38;;;;;;;33.53;28.67;;;17.70;93.40;;;;;;5007415;28;20396;-89
2021/09/17 00:29:04;;;;;;;37.95;30.33;;;17.70;93.40;;;;;;5015575;28;20120;-88
2021/09/17 00:31:29;;;;;;;34.92;29.88;;;17.70;93.40;;;;;;5017812;28;20025;-88
2021/09/17 00:33:55;;;;;;;36.72;30.40;;;17.70;93.50;;;;;;5014675;28;20037;-88
2021/09/17 00:36:21;;;;;;;36.45;29.27;;;17.70;93.50;;;;;;5026697;28;20048;-86
2021/09/17 00:38:47;;;;;;;37.95;30.67;;;17.70;93.60;;;;;;5014754;28;20101;-87
2021/09/17 00:41:13;;;;;;;33.60;28.90;;;17.70;93.50;;;;;;4996294;28;20034;-87
2021/09/17 00:43:41;;;;;;;33.92;27.50;;;17.70;93.60;;;;;;5020456;28;20506;-86
2021/09/17 00:46:07;;;;;;;35.42;29.20;;;17.70;93.70;;;;;;5021174;28;20125;-86
2021/09/17 00:48:32;;;;;;;34.95;29.42;;;17.70;93.70;;;;;;5034702;28;20038;-88
2021/09/17 00:51:01;;;;;;;36.90;29.55;;;17.70;93.70;;;;;;5014341;28;20037;-86
2021/09/17 00:53:33;;;;;;;36.47;30.33;;;17.60;93.70;;;;;;5001510;28;20093;-86
2021/09/17 00:55:59;;;;;;;34.97;29.67;;;17.60;93.80;;;;;;5033794;28;20075;-86
2021/09/17 00:58:54;;;;;;;37.78;30.58;;;17.60;93.80;;;;;;5011902;28;20454;-87
2021/09/17 01:01:20;;;;;;;37.85;30.52;;;17.70;93.90;;;;;;5029901;28;20051;-86
2021/09/17 01:03:45;;;;;;;38.20;30.00;;;17.60;93.90;;;;;;5017229;28;20538;-86
2021/09/17 01:06:11;;;;;;;36.75;30.58;;;17.60;94.00;;;;;;5022229;28;20102;-87
2021/09/17 01:08:38;;;;;;;36.67;30.55;;;17.60;94.00;;;;;;5053994;28;20536;-87
2021/09/17 01:11:04;;;;;;;37.72;30.50;;;17.60;94.00;;;;;;5017859;28;20044;-87
2021/09/17 01:13:30;;;;;;;35.13;29.35;;;17.60;94.10;;;;;;5021981;28;20055;-87
2021/09/17 01:15:56;;;;;;;36.10;29.15;;;17.60;94.10;;;;;;5019435;28;20112;-87
2021/09/17 01:18:22;;;;;;;35.72;29.98;;;17.60;94.00;;;;;;5023201;28;20063;-87
2021/09/17 01:20:48;;;;;;;36.63;29.48;;;17.60;94.00;;;;;;5020037;28;20022;-87
2021/09/17 01:23:13;;;;;;;39.63;31.15;;;17.60;94.10;;;;;;5023031;28;20037;-86
2021/09/17 01:25:39;;;;;;;35.88;29.63;;;17.60;94.10;;;;;;5015416;28;20099;-87
2021/09/17 01:28:05;;;;;;;35.45;29.60;;;17.60;93.90;;;;;;4995210;28;20071;-88
2021/09/17 01:30:32;;;;;;;39.63;30.60;;;17.50;93.90;;;;;;5019679;28;20036;-88
2021/09/17 01:32:57;;;;;;;37.53;30.80;;;17.50;94.00;;;;;;5019739;28;20436;-87
2021/09/17 01:35:24;;;;;;;35.42;30.58;;;17.50;94.00;;;;;;5017673;28;20026;-87
2021/09/17 01:37:50;;;;;;;40.08;32.67;;;17.40;94.00;;;;;;5036125;28;20542;-86
2021/09/17 01:40:17;;;;;;;37.15;31.25;;;17.40;94.10;;;;;;5022834;28;20060;-87
2021/09/17 01:42:44;;;;;;;37.47;30.60;;;17.40;94.20;;;;;;5035596;28;20532;-88
2021/09/17 01:45:11;;;;;;;37.67;30.73;;;17.40;94.60;;;;;;5036021;28;20027;-87
2021/09/17 01:47:38;;;;;;;36.42;30.48;;;17.40;94.90;;;;;;5003286;28;20483;-87
2021/09/17 01:50:04;;;;;;;36.08;30.42;;;17.40;95.00;;;;;;5016712;28;20144;-87
2021/09/17 01:52:30;;;;;;;37.88;30.88;;;17.40;95.20;;;;;;5015080;28;20175;-88
2021/09/17 01:55:06;;;;;;;40.38;32.35;;;17.40;95.00;;;;;;5019485;28;20482;-86
2021/09/17 01:57:48;;;;;;;38.90;30.95;;;17.40;95.10;;;;;;5017371;28;20059;-87
2021/09/17 02:00:15;;;;;;;38.63;31.48;;;17.30;95.30;;;;;;5016218;28;20025;-88
2021/09/17 02:02:41;;;;;;;43.00;33.20;;;17.20;95.20;;;;;;5005814;28;20479;-87
2021/09/17 02:05:07;;;;;;;39.45;32.70;;;17.20;95.30;;;;;;5010325;28;20062;-87
2021/09/17 02:07:33;;;;;;;38.90;31.13;;;17.20;95.30;;;;;;5015305;28;20139;-87
2021/09/17 02:09:59;;;;;;;39.17;31.95;;;17.20;95.30;;;;;;5035521;28;20136;-88
2021/09/17 02:12:25;;;;;;;41.80;32.15;;;17.20;95.30;;;;;;5011315;28;20025;-87
2021/09/17 02:14:52;;;;;;;40.97;31.52;;;17.20;95.40;;;;;;5013468;28;20352;-87
2021/09/17 02:17:18;;;;;;;41.85;32.13;;;17.20;95.40;;;;;;5021174;28;20017;-87
2021/09/17 02:19:44;;;;;;;42.25;31.73;;;17.20;95.50;;;;;;5003035;28;20044;-88
2021/09/17 02:22:09;;;;;;;40.72;31.90;;;17.20;95.50;;;;;;5001341;28;20502;-88
2021/09/17 02:24:35;;;;;;;41.00;31.60;;;17.20;95.60;;;;;;5002605;28;20071;-88
2021/09/17 02:27:01;;;;;;;41.63;31.92;;;17.20;95.50;;;;;;5018936;28;20120;-87
2021/09/17 02:29:27;;;;;;;41.75;32.38;;;17.20;95.60;;;;;;5027900;28;20025;-88
2021/09/17 02:31:53;;;;;;;41.22;32.53;;;17.20;95.60;;;;;;5015471;28;20088;-88
2021/09/17 02:34:18;;;;;;;39.60;31.17;;;17.20;95.60;;;;;;4999108;28;20529;-87
2021/09/17 02:36:44;;;;;;;44.63;33.53;;;17.20;95.60;;;;;;5018801;28;20025;-87
2021/09/17 02:39:13;;;;;;;41.28;32.30;;;17.20;95.60;;;;;;4999032;28;20026;-87
2021/09/17 02:41:39;;;;;;;40.72;31.98;;;17.20;95.50;;;;;;5030843;28;20127;-86
2021/09/17 02:44:05;;;;;;;41.33;32.08;;;17.20;95.60;;;;;;5034943;28;20667;-87
2021/09/17 02:46:31;;;;;;;42.22;31.98;;;17.20;95.70;;;;;;5014877;28;20029;-87
2021/09/17 02:48:57;;;;;;;43.35;33.20;;;17.20;95.80;;;;;;5005967;28;20033;-89
2021/09/17 02:51:23;;;;;;;42.05;33.63;;;17.20;95.80;;;;;;5006241;28;20025;-88
2021/09/17 02:53:48;;;;;;;44.45;33.13;;;17.20;95.90;;;;;;5015244;28;20026;-88
2021/09/17 02:56:14;;;;;;;43.20;33.67;;;17.20;96.00;;;;;;5034767;28;20100;-88
2021/09/17 02:58:40;;;;;;;42.83;33.95;;;17.20;96.00;;;;;;5018887;28;20478;-87
2021/09/17 03:01:06;;;;;;;45.35;33.55;;;17.20;96.00;;;;;;5018179;28;20064;-87
2021/09/17 03:03:32;;;;;;;41.92;32.70;;;17.20;96.00;;;;;;5009794;28;20040;-87
2021/09/17 03:05:58;;;;;;;45.28;35.17;;;17.20;96.00;;;;;;5012668;28;20109;-88
2021/09/17 03:08:23;;;;;;;45.80;34.90;;;17.20;96.10;;;;;;5001676;28;20251;-87
2021/09/17 03:10:52;;;;;;;45.78;34.03;;;17.20;96.00;;;;;;4998834;28;20108;-87
2021/09/17 03:13:17;;;;;;;47.58;34.75;;;17.20;96.10;;;;;;5017305;28;20419;-87
2021/09/17 03:15:43;;;;;;;47.10;35.30;;;17.20;96.00;;;;;;5007242;28;20032;-88
2021/09/17 03:18:09;;;;;;;45.60;34.72;;;17.20;95.90;;;;;;5004164;28;20115;-88
2021/09/17 03:20:35;;;;;;;47.35;35.70;;;17.20;95.90;;;;;;5022768;28;20060;-88
2021/09/17 03:23:01;;;;;;;48.72;35.97;;;17.20;95.90;;;;;;5018908;28;20038;-87
2021/09/17 03:25:27;;;;;;;49.20;35.33;;;17.20;96.00;;;;;;5022344;28;20020;-88
2021/09/17 03:27:52;;;;;;;48.30;35.13;;;17.10;96.10;;;;;;5022519;28;20049;-88
2021/09/17 03:30:18;;;;;;;51.03;35.35;;;17.10;96.30;;;;;;5034979;28;20108;-87
2021/09/17 03:32:44;;;;;;;48.22;35.53;;;17.10;96.40;;;;;;5026340;28;20036;-86
2021/09/17 03:35:10;;;;;;;46.65;35.25;;;17.10;96.50;;;;;;5001503;28;20108;-86
2021/09/17 03:37:36;;;;;;;47.60;34.65;;;17.10;96.50;;;;;;5018085;28;20033;-87
2021/09/17 03:40:04;;;;;;;50.15;37.35;;;17.10;96.40;;;;;;5021495;28;20040;-86
2021/09/17 03:42:29;;;;;;;49.90;36.33;;;17.10;96.50;;;;;;5021742;28;20114;-87
2021/09/17 03:44:56;;;;;;;48.80;36.30;;;17.10;96.40;;;;;;5017856;28;20495;-86
2021/09/17 03:47:22;;;;;;;48.92;36.42;;;17.10;96.50;;;;;;5025303;28;20013;-87
2021/09/17 03:49:48;;;;;;;47.85;35.45;;;17.10;96.50;;;;;;5002057;28;20220;-87
2021/09/17 03:52:13;;;;;;;46.60;34.90;;;17.10;96.50;;;;;;5004020;28;20042;-86
2021/09/17 03:54:39;;;;;;;43.58;33.50;;;17.10;96.50;;;;;;5018146;28;20037;-88
2021/09/17 03:57:05;;;;;;;47.83;34.75;;;17.10;96.60;;;;;;4986321;28;20037;-87
2021/09/17 03:59:31;;;;;;;48.08;35.72;;;17.10;96.60;;;;;;5015789;28;20016;-87
2021/09/17 04:02:00;;;;;;;48.45;35.17;;;17.10;96.60;;;;;;5002424;28;20033;-88
2021/09/17 04:04:27;;;;;;;45.40;33.67;;;17.10;96.70;;;;;;5038867;28;20021;-86
2021/09/17 04:06:53;;;;;;;45.03;33.97;;;17.10;96.60;;;;;;5039942;28;20048;-87
2021/09/17 04:09:19;;;;;;;45.15;34.92;;;17.10;96.70;;;;;;5024184;28;20033;-87
2021/09/17 04:12:13;;;;;;;46.10;35.42;;;17.10;96.70;;;;;;5015743;28;20033;-88
2021/09/17 04:14:38;;;;;;;51.22;36.05;;;17.10;96.90;;;;;;5037093;28;20029;-88
2021/09/17 04:17:04;;;;;;;49.95;35.47;;;17.10;96.80;;;;;;5021364;28;20417;-88
2021/09/17 04:19:30;;;;;;;46.90;34.85;;;17.10;96.90;;;;;;5019202;28;20022;-88
2021/09/17 04:21:56;;;;;;;47.45;34.88;;;17.10;96.90;;;;;;5001838;28;20030;-88
2021/09/17 04:24:22;;;;;;;43.95;34.05;;;17.10;96.90;;;;;;5050680;28;20016;-88
2021/09/17 04:26:48;;;;;;;46.63;35.53;;;17.10;97.00;;;;;;5018019;28;20364;-88
2021/09/17 04:29:13;;;;;;;45.63;34.00;;;17.10;97.00;;;;;;5004771;28;20506;-88
2021/09/17 04:31:39;;;;;;;45.55;34.80;;;17.10;97.20;;;;;;5001749;28;20561;-88
2021/09/17 04:34:05;;;;;;;46.45;34.63;;;17.10;97.10;;;;;;5005182;28;20063;-88
2021/09/17 04:36:49;;;;;;;48.20;35.08;;;17.10;97.00;;;;;;5037853;28;20501;-88
2021/09/17 04:39:15;;;;;;;51.60;37.53;;;17.10;97.00;;;;;;5019009;28;20022;-88
2021/09/17 04:41:41;;;;;;;44.03;33.70;;;17.10;96.80;;;;;;5018733;28;20037;-89
2021/09/17 04:44:07;;;;;;;45.85;35.35;;;17.10;96.70;;;;;;5001691;28;20390;-88
2021/09/17 04:46:36;;;;;;;47.03;34.80;;;17.10;96.70;;;;;;5002935;28;20029;-88
2021/09/17 04:49:02;;;;;;;50.20;36.40;;;17.10;96.60;;;;;;5018004;28;20027;-88
2021/09/17 04:51:28;;;;;;;45.03;35.13;;;17.10;96.70;;;;;;5027245;28;20072;-88
2021/09/17 04:53:53;;;;;;;45.40;34.88;;;17.10;96.70;;;;;;5000881;28;20038;-88
2021/09/17 04:56:19;;;;;;;46.35;34.60;;;17.10;96.60;;;;;;5017746;28;20056;-88
2021/09/17 04:58:45;;;;;;;45.42;34.65;;;17.10;96.50;;;;;;5001595;28;20462;-88
2021/09/17 05:01:26;;;;;;;47.85;36.03;;;17.10;96.50;;;;;;5014863;28;20486;-88
2021/09/17 05:03:52;;;;;;;44.55;35.40;;;17.10;96.60;;;;;;5020753;28;20028;-88
2021/09/17 05:06:18;;;;;;;43.08;33.35;;;17.10;96.50;;;;;;5043075;22;21598;-85
2021/09/17 05:08:44;;;;;;;44.13;34.65;;;17.10;96.60;;;;;;4999726;28;20084;-85
2021/09/17 05:11:09;;;;;;;45.10;36.03;;;17.10;96.50;;;;;;5033465;28;20512;-82
2021/09/17 05:13:35;;;;;;;45.35;33.13;;;17.10;96.50;;;;;;5019459;28;20033;-81
2021/09/17 05:16:16;;;;;;;45.55;35.42;;;17.10;96.50;;;;;;4982614;28;20057;-82
2021/09/17 05:18:43;;;;;;;44.90;34.10;;;17.10;96.60;;;;;;5014770;28;20018;-82
2021/09/17 05:21:10;;;;;;;45.03;35.28;;;17.10;96.50;;;;;;5015445;28;20028;-81
2021/09/17 05:23:36;;;;;;;48.65;35.85;;;17.10;96.50;;;;;;4996151;28;20129;-82
2021/09/17 05:26:03;;;;;;;48.28;35.97;;;17.10;96.50;;;;;;4995741;28;20197;-82
2021/09/17 05:28:29;;;;;;;44.95;33.75;;;17.10;96.50;;;;;;5010676;28;20120;-83
2021/09/17 05:30:55;;;;;;;43.40;32.30;;;17.10;96.60;;;;;;5015143;28;20494;-83
2021/09/17 05:33:21;;;;;;;46.13;34.40;;;17.10;96.50;;;;;;4995846;28;20029;-83
2021/09/17 05:35:47;;;;;;;44.10;34.45;;;17.10;96.50;;;;;;5001209;28;20026;-83
2021/09/17 05:38:13;;;;;;;44.10;34.38;;;17.00;96.50;;;;;;5014466;28;20026;-82
2021/09/17 05:40:39;;;;;;;45.67;34.65;;;17.10;96.60;;;;;;5014355;28;20041;-82
2021/09/17 05:43:07;;;;;;;45.47;34.65;;;17.00;96.60;;;;;;4982073;28;20030;-83
2021/09/17 05:45:33;;;;;;;45.55;35.88;;;17.00;96.60;;;;;;4995233;28;20033;-82
2021/09/17 05:47:59;;;;;;;46.90;35.00;;;17.00;96.60;;;;;;5016147;28;20037;-82
2021/09/17 05:50:25;;;;;;;45.03;34.60;;;17.00;96.70;;;;;;5011081;28;20029;-82
2021/09/17 05:52:51;;;;;;;47.42;35.65;;;17.00;96.70;;;;;;5025360;28;20026;-82
2021/09/17 05:55:16;;;;;;;45.17;33.63;;;17.00;96.70;;;;;;4985544;28;20029;-83
2021/09/17 05:57:48;;;;;;;44.97;34.75;;;17.00;96.70;;;;;;4997464;28;20356;-82
2021/09/17 06:00:15;;;;;;;46.55;35.15;;;17.00;96.70;;;;;;5014078;28;20053;-82
2021/09/17 06:02:40;;;;;;;45.53;35.38;;;17.00;96.80;;;;;;4994950;28;20092;-82
2021/09/17 06:05:07;;;;;;;42.17;32.75;;;17.00;96.70;;;;;;5003105;28;20025;-83
2021/09/17 06:07:32;;;;;;;47.25;34.63;;;17.00;96.70;;;;;;4978761;28;20458;-83
2021/09/17 06:10:00;;;;;;;45.22;32.50;;;16.90;96.80;;;;;;5008341;28;20025;-83
2021/09/17 06:12:26;;;;;;;42.92;31.75;;;16.90;96.80;;;;;;4975455;28;20048;-82
2021/09/17 06:14:52;;;;;;;41.72;32.13;;;16.90;97.10;;;;;;4998103;28;20080;-82
2021/09/17 06:17:18;;;;;;;48.20;35.40;;;16.90;97.00;;;;;;4978905;28;20026;-83
2021/09/17 06:19:44;;;;;;;41.95;31.98;;;16.90;97.30;;;;;;4981248;28;20034;-83
2021/09/17 06:22:09;;;;;;;43.50;34.28;;;16.90;97.30;;;;;;4982003;28;20021;-83
2021/09/17 06:24:36;;;;;;;44.85;33.47;;;16.90;97.30;;;;;;4979104;28;20045;-82
2021/09/17 06:27:02;;;;;;;42.75;32.67;;;16.90;97.30;;;;;;4998240;28;20478;-82
2021/09/17 06:29:34;;;;;;;42.65;32.22;;;16.90;97.20;;;;;;4994606;28;20109;-83
2021/09/17 06:32:00;;;;;;;39.30;31.38;;;16.90;97.20;;;;;;4994520;28;20034;-82
2021/09/17 06:34:25;;;;;;;38.63;30.13;;;16.90;97.20;;;;;;4985503;28;20037;-82
2021/09/17 06:36:53;;;;;;;39.60;30.27;;;16.90;97.20;;;;;;4997865;28;20103;-82
2021/09/17 06:39:22;;;;;;;41.45;30.75;;;17.00;97.20;;;;;;5014701;28;20034;-83
2021/09/17 06:41:49;;;;;;;36.47;28.90;;;17.00;97.20;;;;;;5014035;28;20498;-82
2021/09/17 06:44:17;;;;;;;35.45;27.70;;;17.00;97.20;;;;;;4998403;28;20064;-83
2021/09/17 06:46:44;;;;;;;33.85;26.73;;;17.00;97.20;;;;;;5014653;28;20364;-83
2021/09/17 06:49:10;;;;;;;36.83;29.70;;;17.00;97.40;;;;;;5016663;28;20116;-83
2021/09/17 06:51:36;;;;;;;33.42;27.95;;;17.00;97.40;;;;;;5018245;28;20493;-83
2021/09/17 06:54:02;;;;;;;33.33;27.33;;;17.00;97.30;;;;;;5018197;28;20034;-83
2021/09/17 06:56:27;;;;;;;39.05;29.90;;;17.00;97.30;;;;;;5018029;28;20044;-83
2021/09/17 06:58:58;;;;;;;35.15;26.95;;;17.00;97.30;;;;;;4983930;28;20038;-83
2021/09/17 07:01:25;;;;;;;37.20;24.50;;;17.10;97.30;;;;;;5027766;28;20093;-83
2021/09/17 07:03:51;;;;;;;34.58;25.77;;;17.00;97.30;;;;;;4977058;28;20037;-84
2021/09/17 07:06:17;;;;;;;30.85;25.25;;;17.10;97.60;;;;;;4981824;28;20041;-85
2021/09/17 07:08:43;;;;;;;31.38;25.60;;;17.10;97.40;;;;;;4982757;28;20117;-84
2021/09/17 07:11:09;;;;;;;31.98;25.30;;;17.10;97.50;;;;;;4987545;28;20072;-85
2021/09/17 07:13:35;;;;;;;30.63;24.77;;;17.10;97.30;;;;;;4992280;28;20049;-84
2021/09/17 07:16:01;;;;;;;35.22;26.25;;;17.10;97.40;;;;;;5032574;28;20440;-84
2021/09/17 07:18:27;;;;;;;29.40;24.95;;;17.10;97.40;;;;;;5018868;28;20100;-84
2021/09/17 07:20:54;;;;;;;33.65;25.50;;;17.10;97.30;;;;;;5002291;28;20029;-84
2021/09/17 07:23:20;;;;;;;34.28;24.77;;;17.10;97.30;;;;;;5036193;28;20025;-84
2021/09/17 07:25:47;;;;;;;31.17;23.33;;;17.10;97.30;;;;;;5018489;28;20550;-83
2021/09/17 07:28:13;;;;;;;32.22;24.35;;;17.10;97.20;;;;;;5018359;28;20478;-84
2021/09/17 07:30:39;;;;;;;31.75;24.08;;;17.10;97.20;;;;;;5018447;28;20037;-84
2021/09/17 07:33:05;;;;;;;31.33;25.20;;;17.20;97.20;;;;;;5019249;28;20026;-90
2021/09/17 07:35:34;;;;;;;28.85;24.05;;;17.20;97.10;;;;;;5036348;28;20033;-88
2021/09/17 07:38:00;;;;;;;29.40;23.15;;;17.20;97.10;;;;;;5018967;28;20029;-89
2021/09/17 07:40:27;;;;;;;29.27;23.60;;;17.20;97.10;;;;;;5032614;28;20045;-89
2021/09/17 07:42:53;;;;;;;32.08;24.20;;;17.30;97.10;;;;;;5009308;28;20489;-89
2021/09/17 07:45:24;;;;;;;28.30;21.83;;;17.30;97.30;;;;;;5016011;28;20029;-89
2021/09/17 07:47:51;;;;;;;30.27;22.55;;;17.30;97.00;;;;;;4999265;28;20026;-89
2021/09/17 07:50:18;;;;;;;29.73;23.10;;;17.30;97.00;;;;;;5014018;28;20056;-89
2021/09/17 07:52:44;;;;;;;26.88;22.20;;;17.40;97.00;;;;;;5019411;28;20497;-89
2021/09/17 07:55:11;;;;;;;25.73;20.95;;;17.40;97.00;;;;;;5024589;28;20476;-89
2021/09/17 07:57:38;;;;;;;28.40;21.83;;;17.40;96.90;;;;;;5000493;28;20022;-88
2021/09/17 08:00:07;;;;;;;30.05;24.33;;;17.40;96.90;;;;;;5010324;28;20083;-88
2021/09/17 08:02:33;;;;;;;29.10;22.10;;;17.50;96.80;;;;;;5020143;28;20124;-88
2021/09/17 08:05:09;;;;;;;29.08;22.35;;;17.50;96.80;;;;;;4983593;28;20037;-88
2021/09/17 08:07:35;;;;;;;25.88;22.17;;;17.50;96.70;;;;;;5033915;28;20052;-87
2021/09/17 08:10:02;;;;;;;27.92;22.00;;;17.50;96.70;;;;;;5018787;28;20109;-88
2021/09/17 08:12:28;;;;;;;27.40;23.17;;;17.50;96.70;;;;;;5019219;28;20490;-87
2021/09/17 08:14:54;;;;;;;25.48;22.45;;;17.50;96.60;;;;;;5002861;28;20026;-93
2021/09/17 08:17:20;;;;;;;25.45;21.27;;;17.60;96.60;;;;;;4986868;28;20040;-94
2021/09/17 08:19:46;;;;;;;28.75;22.98;;;17.60;96.50;;;;;;5019671;28;20491;-93
2021/09/17 08:22:11;;;;;;;27.05;22.35;;;17.60;96.50;;;;;;4987119;28;20032;-92
2021/09/17 08:24:37;;;;;;;25.77;21.60;;;17.70;96.50;;;;;;5019051;28;20037;-93
2021/09/17 08:27:03;;;;;;;31.00;23.73;;;17.70;96.50;;;;;;5002687;28;20505;-92
2021/09/17 08:29:29;;;;;;;30.05;25.42;;;17.70;96.50;;;;;;4986796;28;20464;-91
2021/09/17 08:32:13;;;;;;;29.67;24.02;;;17.70;96.40;;;;;;4999488;28;20052;-92
2021/09/17 08:34:39;;;;;;;27.52;23.02;;;17.80;96.40;;;;;;4983083;28;20037;-92
2021/09/17 08:37:08;;;;;;;31.92;26.05;;;17.80;96.30;;;;;;4986337;28;20026;-91
2021/09/17 08:39:38;;;;;;;30.95;24.25;;;17.80;96.20;;;;;;5003593;28;20025;-92
2021/09/17 08:42:09;;;;;;;27.15;22.60;;;17.80;96.20;;;;;;5018795;28;20024;-87
2021/09/17 08:44:36;;;;;;;25.38;20.98;;;17.90;96.20;;;;;;5007923;28;20061;-88
2021/09/17 08:47:02;;;;;;;27.23;22.10;;;17.90;96.20;;;;;;5014283;28;20021;-88
2021/09/17 08:49:28;;;;;;;25.98;22.40;;;17.90;96.20;;;;;;4998607;28;20030;-89
2021/09/17 08:51:54;;;;;;;27.42;22.23;;;18.00;96.10;;;;;;5001127;28;20025;-89
2021/09/17 08:54:21;;;;;;;32.42;23.08;;;18.00;96.10;;;;;;5015592;28;20084;-88
2021/09/17 08:56:49;;;;;;;30.05;21.42;;;18.10;96.10;;;;;;4990703;28;20388;-88
2021/09/17 08:59:15;;;;;;;26.77;20.27;;;18.20;96.10;;;;;;5016451;28;20026;-87
2021/09/17 09:01:41;;;;;;;26.30;20.48;;;18.20;96.10;;;;;;4997788;28;20398;-88
2021/09/17 09:04:10;;;;;;;27.20;21.17;;;18.30;96.00;;;;;;5014211;28;20501;-88
2021/09/17 09:06:40;;;;;;;25.13;21.27;;;18.30;96.10;;;;;;4981543;28;20403;-88
2021/09/17 09:09:20;;;;;;;25.35;21.65;;;18.30;95.40;;;;;;5012788;28;20080;-91
2021/09/17 09:11:59;;;;;;;22.52;18.48;;;18.30;95.20;;;;;;5016473;28;20030;-90
2021/09/17 09:14:36;;;;;;;21.48;17.60;;;18.40;95.50;;;;;;5037228;28;20020;-91
2021/09/17 09:17:08;;;;;;;20.30;17.08;;;18.40;95.20;;;;;;5016970;28;20030;-92
2021/09/17 09:19:35;;;;;;;21.58;17.33;;;18.50;95.10;;;;;;4998920;28;20026;-91
2021/09/17 09:22:07;;;;;;;21.75;18.38;;;18.50;95.00;;;;;;5026071;28;20014;-91
2021/09/17 09:24:40;;;;;;;18.95;16.80;;;18.50;94.90;;;;;;5033090;28;20097;-92
2021/09/17 09:27:24;;;;;;;20.45;16.92;;;18.60;94.90;;;;;;5033432;28;20014;-91
2021/09/17 09:29:52;;;;;;;19.55;16.77;;;18.60;94.80;;;;;;5017236;28;20038;-91
2021/09/17 09:32:35;;;;;;;18.17;15.18;;;18.70;94.70;;;;;;5034613;28;20021;-92
2021/09/17 09:35:09;;;;;;;20.17;15.93;;;18.70;94.70;;;;;;5017105;28;20029;-91
2021/09/17 09:37:43;;;;;;;20.02;16.58;;;18.80;94.60;;;;;;5034856;28;20056;-91
2021/09/17 09:40:13;;;;;;;20.58;18.38;;;18.80;94.50;;;;;;5033168;28;20402;-92
2021/09/17 09:42:45;;;;;;;22.90;18.95;;;18.80;94.40;;;;;;5016750;28;20033;-91
2021/09/17 09:45:20;;;;;;;21.58;18.50;;;18.90;93.90;;;;;;5034167;28;20026;-92
2021/09/17 09:47:50;;;;;;;20.30;16.17;;;18.90;93.90;;;;;;5016502;28;20059;-91
2021/09/17 09:50:29;;;;;;;19.65;16.50;;;19.00;93.90;;;;;;5032437;28;20038;-92
2021/09/17 09:52:59;;;;;;;15.77;13.55;;;19.00;93.80;;;;;;5016025;28;20030;-91
2021/09/17 09:55:26;;;;;;;18.80;15.60;;;19.00;93.90;;;;;;5013971;28;20021;-92
2021/09/17 09:57:56;;;;;;;20.88;16.60;;;19.00;93.90;;;;;;5016493;28;20025;-91
2021/09/17 10:00:24;;;;;;;20.45;15.88;;;19.10;93.80;;;;;;4998895;28;20036;-91
2021/09/17 10:02:50;;;;;;;21.17;17.15;;;19.10;93.80;;;;;;5014707;28;20026;-92
2021/09/17 10:05:25;;;;;;;19.42;15.70;;;19.20;93.50;;;;;;5030252;28;20057;-91
2021/09/17 10:07:52;;;;;;;22.23;18.38;;;19.20;93.50;;;;;;5026014;28;20106;-92
2021/09/17 10:10:18;;;;;;;22.85;19.10;;;19.30;93.40;;;;;;5012603;28;20073;-90
2021/09/17 10:12:46;;;;;;;21.20;18.48;;;19.30;93.40;;;;;;5029056;28;20152;-91
2021/09/17 10:15:13;;;;;;;20.95;16.75;;;19.40;93.20;;;;;;5029546;28;20092;-92
2021/09/17 10:17:40;;;;;;;21.73;17.65;;;19.40;93.30;;;;;;5012668;28;20030;-91
2021/09/17 10:20:11;;;;;;;21.33;18.20;;;19.50;93.30;;;;;;5031234;28;20116;-90
2021/09/17 10:22:45;;;;;;;19.90;16.83;;;19.50;93.20;;;;;;5020717;28;20068;-90
2021/09/17 10:25:24;;;;;;;22.27;18.98;;;19.50;93.20;;;;;;5018281;28;20026;-89
2021/09/17 10:28:02;;;;;;;24.00;19.13;;;19.60;93.20;;;;;;5015904;28;20105;-89
2021/09/17 10:30:31;;;;;;;22.90;18.58;;;19.70;93.20;;;;;;5019487;28;20413;-89
2021/09/17 10:32:57;;;;;;;25.00;19.30;;;19.70;93.20;;;;;;5002843;28;20029;-89
2021/09/17 10:35:31;;;;;;;23.52;19.08;;;19.80;93.20;;;;;;4981419;28;20104;-89
2021/09/17 10:38:18;;;;;;;21.95;18.17;;;19.80;93.10;;;;;;5013943;28;20048;-88
2021/09/17 10:41:08;;;;;;;24.42;20.27;;;19.80;93.10;;;;;;5013727;28;20034;-89
2021/09/17 10:43:43;;;;;;;23.58;19.45;;;19.80;93.10;;;;;;5012914;28;20064;-88
2021/09/17 10:46:29;;;;;;;24.38;18.58;;;19.90;93.10;;;;;;5013169;28;20038;-89
2021/09/17 10:48:59;;;;;;;23.25;18.58;;;19.90;93.00;;;;;;4994471;28;20041;-89
2021/09/17 10:51:30;;;;;;;25.40;21.30;;;20.00;93.00;;;;;;4992489;28;20116;-91
2021/09/17 10:54:00;;;;;;;22.95;19.42;;;20.00;92.90;;;;;;5014180;28;20073;-91
2021/09/17 10:56:26;;;;;;;23.92;20.17;;;20.00;92.90;;;;;;5014036;28;20022;-91
2021/09/17 10:59:24;;;;;;;24.13;20.45;;;20.10;93.00;;;;;;5019733;28;20022;-90
2021/09/17 11:01:54;;;;;;;23.58;20.17;;;20.10;92.80;;;;;;5030221;28;20037;-92
2021/09/17 11:04:43;;;;;;;24.67;18.83;;;20.10;92.60;;;;;;5016001;28;20485;-92
2021/09/17 11:07:18;;;;;;;21.88;17.77;;;20.20;92.80;;;;;;5044588;22;20057;-89
2021/09/17 11:09:47;;;;;;;18.67;15.65;;;20.20;92.80;;;;;;5052197;28;20029;-88
2021/09/17 11:12:14;;;;;;;21.58;19.08;;;20.30;92.90;;;;;;5049976;28;20087;-89
2021/09/17 11:14:40;;;;;;;27.55;21.27;;;20.30;92.90;;;;;;5053149;28;20468;-88
2021/09/17 11:17:06;;;;;;;22.75;18.73;;;20.30;92.70;;;;;;5054455;28;20052;-88
2021/09/17 11:19:33;;;;;;;26.25;19.63;;;20.40;92.70;;;;;;5037013;28;20055;-88
2021/09/17 11:22:01;;;;;;;22.00;18.05;;;20.40;92.60;;;;;;5037289;28;20029;-87
2021/09/17 11:24:28;;;;;;;21.20;17.05;;;20.50;92.60;;;;;;5033507;28;20036;-88
2021/09/17 11:26:56;;;;;;;21.63;18.30;;;20.50;92.60;;;;;;5045461;28;20500;-88
2021/09/17 11:29:24;;;;;;;24.42;19.80;;;20.60;92.50;;;;;;5047640;28;20025;-88
2021/09/17 11:31:55;;;;;;;25.13;19.85;;;20.60;92.30;;;;;;5043590;28;20037;-88
2021/09/17 11:34:23;;;;;;;;;;;20.70;92.30;;;;;;5053955;28;20017;-88
2021/09/17 11:37:01;;;;;;;23.05;18.58;;;20.70;92.10;;;;;;5057520;28;19991;-88
2021/09/17 11:39:35;;;;;;;22.00;19.20;;;20.70;92.10;;;;;;5056179;28;20013;-88
2021/09/17 11:42:07;;;;;;;21.40;17.98;;;20.80;92.10;;;;;;5055799;28;20021;-89
2021/09/17 11:44:40;;;;;;;18.50;15.60;;;20.80;92.10;;;;;;5038661;28;20489;-89
2021/09/17 11:47:10;;;;;;;19.25;15.07;;;20.90;92.20;;;;;;5047053;28;20029;-86
2021/09/17 11:49:38;;;;;;;19.50;16.33;;;21.00;92.30;;;;;;5040653;28;20531;-88
2021/09/17 11:52:06;;;;;;;19.20;15.98;;;21.10;92.40;;;;;;5046783;28;20472;-89
2021/09/17 11:54:33;;;;;;;22.50;17.90;;;21.20;92.50;;;;;;5042765;28;20025;-84
2021/09/17 11:57:04;;;;;;;21.80;17.45;;;21.30;92.60;;;;;;5054225;28;20032;-84
2021/09/17 11:59:37;;;;;;;18.77;16.10;;;21.40;92.50;;;;;;5052731;28;20033;-84
2021/09/17 12:02:21;;;;;;;18.10;15.00;;;21.40;92.60;;;;;;5042353;28;20028;-85
2021/09/17 12:04:58;;;;;;;17.25;14.98;;;21.50;92.60;;;;;;5054073;28;20029;-85
2021/09/17 12:07:30;;;;;;;18.60;15.23;;;21.60;92.70;;;;;;5044211;28;20052;-84
2021/09/17 12:09:57;;;;;;;20.40;16.45;;;21.60;92.60;;;;;;5051065;28;20021;-84
2021/09/17 12:12:34;;;;;;;21.30;16.35;;;21.70;92.60;;;;;;5054141;28;20075;-84
2021/09/17 12:15:01;;;;;;;20.23;15.85;;;21.80;92.60;;;;;;5039657;28;20488;-88
2021/09/17 12:17:27;;;;;;;17.98;15.55;;;21.90;92.50;;;;;;5054689;28;20127;-89
2021/09/17 12:20:05;;;;;;;20.00;16.98;;;21.90;92.40;;;;;;5055733;28;20040;-88
2021/09/17 12:22:48;;;;;;;20.48;16.35;;;22.00;92.50;;;;;;5051635;28;20021;-88
2021/09/17 12:25:19;;;;;;;18.48;15.27;;;22.00;92.40;;;;;;5036131;28;20057;-88
2021/09/17 12:27:46;;;;;;;;;;;22.10;92.20;;;;;;5052248;28;20025;-88
2021/09/17 12:30:16;;;;;;;18.60;15.02;;;22.10;91.70;;;;;;5036389;28;19960;-88
2021/09/17 12:32:43;;;;;;;;;;;22.20;91.80;;;;;;5034971;28;20033;-89
2021/09/17 12:35:14;;;;;;;19.80;15.77;;;22.20;91.70;;;;;;5042947;28;19909;-88